sensor_id;sensor_type;location;lat;lon;timestamp;temperature;humidity
43561;DHT22;32305;46.410;17.394;2024-02-21T00:00:19;22.50;39.00
43561;DHT22;32305;46.410;17.394;2024-02-21T00:02:46;22.40;39.00
43561;DHT22;32305;46.410;17.394;2024-02-21T00:05:13;22.40;39.00
43561;DHT22;32305;46.410;17.394;2024-02-21T00:07:40;22.40;39.00
43561;DHT22;32305;46.410;17.394;2024-02-21T00:10:07;22.40;39.00
43561;DHT22;32305;46.410;17.394;2024-02-21T00:12:34;22.50;39.00
43561;DHT22;32305;46.410;17.394;2024-02-21T00:15:01;22.40;39.00
43561;DHT22;32305;46.410;17.394;2024-02-21T00:17:28;22.50;39.10
43561;DHT22;32305;46.410;17.394;2024-02-21T00:19:55;22.40;39.00
43561;DHT22;32305;46.410;17.394;2024-02-21T00:22:22;22.40;39.00
43561;DHT22;32305;46.410;17.394;2024-02-21T00:24:49;22.40;38.90
43561;DHT22;32305;46.410;17.394;2024-02-21T00:27:16;22.50;38.90
43561;DHT22;32305;46.410;17.394;2024-02-21T00:29:43;22.50;38.90
43561;DHT22;32305;46.410;17.394;2024-02-21T00:32:10;22.50;38.90
43561;DHT22;32305;46.410;17.394;2024-02-21T00:34:37;22.40;38.80
43561;DHT22;32305;46.410;17.394;2024-02-21T00:37:04;22.40;38.80
43561;DHT22;32305;46.410;17.394;2024-02-21T00:39:31;22.40;38.80
43561;DHT22;32305;46.410;17.394;2024-02-21T00:41:57;22.40;38.80
43561;DHT22;32305;46.410;17.394;2024-02-21T00:44:24;22.40;38.80
43561;DHT22;32305;46.410;17.394;2024-02-21T00:46:51;22.40;38.80
43561;DHT22;32305;46.410;17.394;2024-02-21T00:49:19;22.40;38.90
43561;DHT22;32305;46.410;17.394;2024-02-21T00:51:47;22.40;39.40
43561;DHT22;32305;46.410;17.394;2024-02-21T00:54:13;22.40;38.80
43561;DHT22;32305;46.410;17.394;2024-02-21T00:56:40;22.40;38.80
43561;DHT22;32305;46.410;17.394;2024-02-21T00:59:07;22.40;38.80
43561;DHT22;32305;46.410;17.394;2024-02-21T01:01:34;22.40;38.80
43561;DHT22;32305;46.410;17.394;2024-02-21T01:04:01;22.40;38.80
43561;DHT22;32305;46.410;17.394;2024-02-21T01:06:28;22.40;38.70
43561;DHT22;32305;46.410;17.394;2024-02-21T01:08:55;22.40;38.70
43561;DHT22;32305;46.410;17.394;2024-02-21T01:11:22;22.40;38.70
43561;DHT22;32305;46.410;17.394;2024-02-21T01:13:49;22.40;38.70
43561;DHT22;32305;46.410;17.394;2024-02-21T01:16:16;22.40;38.70
43561;DHT22;32305;46.410;17.394;2024-02-21T01:18:43;22.40;38.70
43561;DHT22;32305;46.410;17.394;2024-02-21T01:21:10;22.40;39.30
43561;DHT22;32305;46.410;17.394;2024-02-21T01:23:37;22.40;38.80
43561;DHT22;32305;46.410;17.394;2024-02-21T01:26:04;22.40;38.80
43561;DHT22;32305;46.410;17.394;2024-02-21T01:28:31;22.40;38.80
43561;DHT22;32305;46.410;17.394;2024-02-21T01:30:58;22.40;38.80
43561;DHT22;32305;46.410;17.394;2024-02-21T01:33:25;22.40;38.70
43561;DHT22;32305;46.410;17.394;2024-02-21T01:35:52;22.40;38.70
43561;DHT22;32305;46.410;17.394;2024-02-21T01:38:20;22.40;38.70
43561;DHT22;32305;46.410;17.394;2024-02-21T01:40:47;22.40;38.70
43561;DHT22;32305;46.410;17.394;2024-02-21T01:43:15;22.40;38.70
43561;DHT22;32305;46.410;17.394;2024-02-21T01:45:43;22.40;38.70
43561;DHT22;32305;46.410;17.394;2024-02-21T01:48:09;22.30;38.60
43561;DHT22;32305;46.410;17.394;2024-02-21T01:50:37;22.30;38.60
43561;DHT22;32305;46.410;17.394;2024-02-21T01:53:04;22.30;38.60
43561;DHT22;32305;46.410;17.394;2024-02-21T01:55:31;22.30;38.70
43561;DHT22;32305;46.410;17.394;2024-02-21T01:57:58;22.30;38.70
43561;DHT22;32305;46.410;17.394;2024-02-21T02:00:25;22.30;38.70
43561;DHT22;32305;46.410;17.394;2024-02-21T02:02:53;22.30;38.60
43561;DHT22;32305;46.410;17.394;2024-02-21T02:05:20;22.30;38.60
43561;DHT22;32305;46.410;17.394;2024-02-21T02:07:48;22.30;38.60
43561;DHT22;32305;46.410;17.394;2024-02-21T02:10:14;22.30;38.70
43561;DHT22;32305;46.410;17.394;2024-02-21T02:12:41;22.30;38.60
43561;DHT22;32305;46.410;17.394;2024-02-21T02:15:08;22.30;38.60
43561;DHT22;32305;46.410;17.394;2024-02-21T02:17:35;22.30;38.60
43561;DHT22;32305;46.410;17.394;2024-02-21T02:20:02;22.30;38.60
43561;DHT22;32305;46.410;17.394;2024-02-21T02:22:32;22.30;38.60
43561;DHT22;32305;46.410;17.394;2024-02-21T02:25:01;22.30;38.60
43561;DHT22;32305;46.410;17.394;2024-02-21T02:27:28;22.30;39.20
43561;DHT22;32305;46.410;17.394;2024-02-21T02:29:55;22.30;38.60
43561;DHT22;32305;46.410;17.394;2024-02-21T02:32:22;22.30;38.70
43561;DHT22;32305;46.410;17.394;2024-02-21T02:34:49;22.30;38.60
43561;DHT22;32305;46.410;17.394;2024-02-21T02:37:16;22.30;38.60
43561;DHT22;32305;46.410;17.394;2024-02-21T02:39:43;22.30;38.50
43561;DHT22;32305;46.410;17.394;2024-02-21T02:42:10;22.30;38.50
43561;DHT22;32305;46.410;17.394;2024-02-21T02:44:36;22.30;38.40
43561;DHT22;32305;46.410;17.394;2024-02-21T02:47:03;22.30;38.50
43561;DHT22;32305;46.410;17.394;2024-02-21T02:49:30;22.30;38.40
43561;DHT22;32305;46.410;17.394;2024-02-21T02:51:57;22.30;38.40
43561;DHT22;32305;46.410;17.394;2024-02-21T02:54:24;22.30;38.50
43561;DHT22;32305;46.410;17.394;2024-02-21T02:56:51;22.30;38.50
43561;DHT22;32305;46.410;17.394;2024-02-21T02:59:18;22.30;38.50
43561;DHT22;32305;46.410;17.394;2024-02-21T03:01:45;22.30;38.50
43561;DHT22;32305;46.410;17.394;2024-02-21T03:04:12;22.30;38.50
43561;DHT22;32305;46.410;17.394;2024-02-21T03:06:39;22.30;38.40
43561;DHT22;32305;46.410;17.394;2024-02-21T03:09:06;22.30;38.50
43561;DHT22;32305;46.410;17.394;2024-02-21T03:11:35;22.30;38.40
43561;DHT22;32305;46.410;17.394;2024-02-21T03:14:04;22.30;38.40
43561;DHT22;32305;46.410;17.394;2024-02-21T03:16:31;22.30;38.40
43561;DHT22;32305;46.410;17.394;2024-02-21T03:18:58;22.30;38.40
43561;DHT22;32305;46.410;17.394;2024-02-21T03:21:25;22.30;38.40
43561;DHT22;32305;46.410;17.394;2024-02-21T03:23:52;22.30;38.40
43561;DHT22;32305;46.410;17.394;2024-02-21T03:26:19;22.30;38.40
43561;DHT22;32305;46.410;17.394;2024-02-21T03:28:46;22.30;38.40
43561;DHT22;32305;46.410;17.394;2024-02-21T03:31:13;22.30;38.30
43561;DHT22;32305;46.410;17.394;2024-02-21T03:33:42;22.30;38.40
43561;DHT22;32305;46.410;17.394;2024-02-21T03:36:15;22.30;38.40
43561;DHT22;32305;46.410;17.394;2024-02-21T03:38:42;22.30;38.40
43561;DHT22;32305;46.410;17.394;2024-02-21T03:41:09;22.30;38.40
43561;DHT22;32305;46.410;17.394;2024-02-21T03:43:39;22.30;38.40
43561;DHT22;32305;46.410;17.394;2024-02-21T03:46:06;22.30;38.30
43561;DHT22;32305;46.410;17.394;2024-02-21T03:48:33;22.30;38.30
43561;DHT22;32305;46.410;17.394;2024-02-21T03:51:00;22.30;38.20
43561;DHT22;32305;46.410;17.394;2024-02-21T03:53:27;22.30;38.30
43561;DHT22;32305;46.410;17.394;2024-02-21T03:55:55;22.30;38.20
43561;DHT22;32305;46.410;17.394;2024-02-21T03:58:22;22.30;38.20
43561;DHT22;32305;46.410;17.394;2024-02-21T04:00:49;22.20;38.20
43561;DHT22;32305;46.410;17.394;2024-02-21T04:03:16;22.20;38.20
43561;DHT22;32305;46.410;17.394;2024-02-21T04:05:43;22.20;38.30
43561;DHT22;32305;46.410;17.394;2024-02-21T04:08:10;22.20;38.20
43561;DHT22;32305;46.410;17.394;2024-02-21T04:10:37;22.30;38.30
43561;DHT22;32305;46.410;17.394;2024-02-21T04:13:05;22.30;38.30
43561;DHT22;32305;46.410;17.394;2024-02-21T04:15:32;22.20;38.30
43561;DHT22;32305;46.410;17.394;2024-02-21T04:17:59;22.30;38.30
43561;DHT22;32305;46.410;17.394;2024-02-21T04:20:26;22.30;38.30
43561;DHT22;32305;46.410;17.394;2024-02-21T04:22:53;22.30;38.30
43561;DHT22;32305;46.410;17.394;2024-02-21T04:25:20;22.20;38.20
43561;DHT22;32305;46.410;17.394;2024-02-21T04:27:47;22.30;38.30
43561;DHT22;32305;46.410;17.394;2024-02-21T04:30:14;22.20;38.30
43561;DHT22;32305;46.410;17.394;2024-02-21T04:32:42;22.20;38.20
43561;DHT22;32305;46.410;17.394;2024-02-21T04:35:09;22.30;38.30
43561;DHT22;32305;46.410;17.394;2024-02-21T04:37:36;22.30;38.30
43561;DHT22;32305;46.410;17.394;2024-02-21T04:40:03;22.30;38.00
43561;DHT22;32305;46.410;17.394;2024-02-21T04:42:30;22.20;37.70
43561;DHT22;32305;46.410;17.394;2024-02-21T04:44:57;22.20;37.50
43561;DHT22;32305;46.410;17.394;2024-02-21T04:47:24;22.20;37.40
43561;DHT22;32305;46.410;17.394;2024-02-21T04:49:51;22.30;37.30
43561;DHT22;32305;46.410;17.394;2024-02-21T04:52:18;22.30;37.30
43561;DHT22;32305;46.410;17.394;2024-02-21T04:54:45;22.30;37.10
43561;DHT22;32305;46.410;17.394;2024-02-21T04:57:12;22.30;37.10
43561;DHT22;32305;46.410;17.394;2024-02-21T04:59:44;22.30;37.10
43561;DHT22;32305;46.410;17.394;2024-02-21T05:02:11;22.30;37.00
43561;DHT22;32305;46.410;17.394;2024-02-21T05:04:42;22.30;36.90
43561;DHT22;32305;46.410;17.394;2024-02-21T05:07:09;22.30;36.90
43561;DHT22;32305;46.410;17.394;2024-02-21T05:09:37;22.30;36.90
43561;DHT22;32305;46.410;17.394;2024-02-21T05:12:04;22.30;36.80
43561;DHT22;32305;46.410;17.394;2024-02-21T05:14:31;22.30;36.80
43561;DHT22;32305;46.410;17.394;2024-02-21T05:16:58;22.30;36.80
43561;DHT22;32305;46.410;17.394;2024-02-21T05:19:25;22.30;36.70
43561;DHT22;32305;46.410;17.394;2024-02-21T05:21:52;22.30;36.70
43561;DHT22;32305;46.410;17.394;2024-02-21T05:24:19;22.30;36.60
43561;DHT22;32305;46.410;17.394;2024-02-21T05:26:46;22.30;36.60
43561;DHT22;32305;46.410;17.394;2024-02-21T05:29:13;22.30;36.60
43561;DHT22;32305;46.410;17.394;2024-02-21T05:31:54;22.30;36.50
43561;DHT22;32305;46.410;17.394;2024-02-21T05:34:22;22.30;36.50
43561;DHT22;32305;46.410;17.394;2024-02-21T05:36:50;22.30;36.40
43561;DHT22;32305;46.410;17.394;2024-02-21T05:39:17;22.30;36.40
43561;DHT22;32305;46.410;17.394;2024-02-21T05:41:44;22.30;36.40
43561;DHT22;32305;46.410;17.394;2024-02-21T05:44:11;22.30;36.40
43561;DHT22;32305;46.410;17.394;2024-02-21T05:46:38;22.30;36.40
43561;DHT22;32305;46.410;17.394;2024-02-21T05:49:05;22.30;36.40
43561;DHT22;32305;46.410;17.394;2024-02-21T05:51:33;22.20;36.30
43561;DHT22;32305;46.410;17.394;2024-02-21T05:54:00;22.20;36.20
43561;DHT22;32305;46.410;17.394;2024-02-21T05:56:27;22.30;36.20
43561;DHT22;32305;46.410;17.394;2024-02-21T05:58:55;22.20;36.20
43561;DHT22;32305;46.410;17.394;2024-02-21T06:01:22;22.30;36.10
43561;DHT22;32305;46.410;17.394;2024-02-21T06:03:49;22.30;36.10
43561;DHT22;32305;46.410;17.394;2024-02-21T06:06:16;22.30;36.10
43561;DHT22;32305;46.410;17.394;2024-02-21T06:08:43;22.30;36.00
43561;DHT22;32305;46.410;17.394;2024-02-21T06:11:10;22.40;36.00
43561;DHT22;32305;46.410;17.394;2024-02-21T06:13:38;22.40;36.00
43561;DHT22;32305;46.410;17.394;2024-02-21T06:16:05;22.30;36.00
43561;DHT22;32305;46.410;17.394;2024-02-21T06:18:32;22.40;36.00
43561;DHT22;32305;46.410;17.394;2024-02-21T06:20:59;22.40;36.00
43561;DHT22;32305;46.410;17.394;2024-02-21T06:23:26;22.40;36.00
43561;DHT22;32305;46.410;17.394;2024-02-21T06:25:53;22.40;36.00
43561;DHT22;32305;46.410;17.394;2024-02-21T06:28:20;22.40;36.20
43561;DHT22;32305;46.410;17.394;2024-02-21T06:30:47;22.40;36.70
43561;DHT22;32305;46.410;17.394;2024-02-21T06:33:14;22.50;37.30
43561;DHT22;32305;46.410;17.394;2024-02-21T06:35:41;22.50;37.40
43561;DHT22;32305;46.410;17.394;2024-02-21T06:38:09;22.50;37.60
43561;DHT22;32305;46.410;17.394;2024-02-21T06:40:36;22.60;37.60
43561;DHT22;32305;46.410;17.394;2024-02-21T06:43:06;22.60;37.60
43561;DHT22;32305;46.410;17.394;2024-02-21T06:45:33;22.70;37.60
43561;DHT22;32305;46.410;17.394;2024-02-21T06:48:00;22.70;37.50
43561;DHT22;32305;46.410;17.394;2024-02-21T06:50:27;22.80;37.50
43561;DHT22;32305;46.410;17.394;2024-02-21T06:52:54;22.90;37.30
43561;DHT22;32305;46.410;17.394;2024-02-21T06:55:21;22.90;37.00
43561;DHT22;32305;46.410;17.394;2024-02-21T06:57:48;22.90;36.80
43561;DHT22;32305;46.410;17.394;2024-02-21T07:00:16;23.00;36.90
43561;DHT22;32305;46.410;17.394;2024-02-21T07:02:43;23.00;36.90
43561;DHT22;32305;46.410;17.394;2024-02-21T07:05:10;23.00;36.90
43561;DHT22;32305;46.410;17.394;2024-02-21T07:07:37;23.00;36.80
43561;DHT22;32305;46.410;17.394;2024-02-21T07:10:04;23.00;36.50
43561;DHT22;32305;46.410;17.394;2024-02-21T07:12:31;23.10;36.70
43561;DHT22;32305;46.410;17.394;2024-02-21T07:14:58;23.10;36.90
43561;DHT22;32305;46.410;17.394;2024-02-21T07:17:26;23.10;36.90
43561;DHT22;32305;46.410;17.394;2024-02-21T07:19:53;23.10;36.70
43561;DHT22;32305;46.410;17.394;2024-02-21T07:22:23;23.20;36.70
43561;DHT22;32305;46.410;17.394;2024-02-21T07:24:50;23.20;36.70
43561;DHT22;32305;46.410;17.394;2024-02-21T07:27:17;23.20;36.70
43561;DHT22;32305;46.410;17.394;2024-02-21T07:29:44;23.30;36.70
43561;DHT22;32305;46.410;17.394;2024-02-21T07:32:14;23.30;36.60
43561;DHT22;32305;46.410;17.394;2024-02-21T07:34:41;23.30;36.50
43561;DHT22;32305;46.410;17.394;2024-02-21T07:37:09;23.30;36.30
43561;DHT22;32305;46.410;17.394;2024-02-21T07:39:36;23.30;36.20
43561;DHT22;32305;46.410;17.394;2024-02-21T07:42:06;23.40;36.20
43561;DHT22;32305;46.410;17.394;2024-02-21T07:44:33;23.40;36.20
43561;DHT22;32305;46.410;17.394;2024-02-21T07:47:01;23.40;36.40
43561;DHT22;32305;46.410;17.394;2024-02-21T07:49:28;23.40;36.00
43561;DHT22;32305;46.410;17.394;2024-02-21T07:51:55;23.50;35.90
43561;DHT22;32305;46.410;17.394;2024-02-21T07:54:23;23.40;35.70
43561;DHT22;32305;46.410;17.394;2024-02-21T07:56:49;23.50;35.60
43561;DHT22;32305;46.410;17.394;2024-02-21T07:59:16;23.50;35.30
43561;DHT22;32305;46.410;17.394;2024-02-21T08:01:43;23.50;35.20
43561;DHT22;32305;46.410;17.394;2024-02-21T08:04:14;23.50;35.10
43561;DHT22;32305;46.410;17.394;2024-02-21T08:06:42;23.50;35.10
43561;DHT22;32305;46.410;17.394;2024-02-21T08:09:10;23.60;35.60
43561;DHT22;32305;46.410;17.394;2024-02-21T08:11:37;23.60;35.00
43561;DHT22;32305;46.410;17.394;2024-02-21T08:14:05;23.60;34.90
43561;DHT22;32305;46.410;17.394;2024-02-21T08:16:32;23.60;34.90
43561;DHT22;32305;46.410;17.394;2024-02-21T08:18:59;23.60;34.90
43561;DHT22;32305;46.410;17.394;2024-02-21T08:21:27;23.60;34.80
43561;DHT22;32305;46.410;17.394;2024-02-21T08:23:54;23.60;34.80
43561;DHT22;32305;46.410;17.394;2024-02-21T08:26:22;23.60;34.70
43561;DHT22;32305;46.410;17.394;2024-02-21T08:28:49;23.70;34.80
43561;DHT22;32305;46.410;17.394;2024-02-21T08:31:20;23.70;34.70
43561;DHT22;32305;46.410;17.394;2024-02-21T08:33:47;23.70;34.70
43561;DHT22;32305;46.410;17.394;2024-02-21T08:36:18;23.70;34.60
43561;DHT22;32305;46.410;17.394;2024-02-21T08:38:46;23.80;34.70
43561;DHT22;32305;46.410;17.394;2024-02-21T08:41:13;23.80;34.70
43561;DHT22;32305;46.410;17.394;2024-02-21T08:43:41;23.80;34.50
43561;DHT22;32305;46.410;17.394;2024-02-21T08:46:08;23.90;34.30
43561;DHT22;32305;46.410;17.394;2024-02-21T08:48:35;23.90;34.30
43561;DHT22;32305;46.410;17.394;2024-02-21T08:51:02;23.90;34.20
43561;DHT22;32305;46.410;17.394;2024-02-21T08:53:29;23.90;34.10
43561;DHT22;32305;46.410;17.394;2024-02-21T08:55:56;24.00;34.10
43561;DHT22;32305;46.410;17.394;2024-02-21T08:58:23;24.00;34.20
43561;DHT22;32305;46.410;17.394;2024-02-21T09:00:52;24.00;34.20
43561;DHT22;32305;46.410;17.394;2024-02-21T09:03:19;24.00;34.20
43561;DHT22;32305;46.410;17.394;2024-02-21T09:05:47;24.10;34.10
43561;DHT22;32305;46.410;17.394;2024-02-21T09:08:14;24.10;34.20
43561;DHT22;32305;46.410;17.394;2024-02-21T09:10:41;24.10;34.20
43561;DHT22;32305;46.410;17.394;2024-02-21T09:13:08;24.20;34.10
43561;DHT22;32305;46.410;17.394;2024-02-21T09:15:35;24.30;34.10
43561;DHT22;32305;46.410;17.394;2024-02-21T09:18:02;24.30;34.00
43561;DHT22;32305;46.410;17.394;2024-02-21T09:20:29;24.30;33.90
43561;DHT22;32305;46.410;17.394;2024-02-21T09:22:56;24.40;33.90
43561;DHT22;32305;46.410;17.394;2024-02-21T09:25:23;24.40;33.80
43561;DHT22;32305;46.410;17.394;2024-02-21T09:27:50;24.50;33.90
43561;DHT22;32305;46.410;17.394;2024-02-21T09:30:18;24.50;33.90
43561;DHT22;32305;46.410;17.394;2024-02-21T09:32:46;24.50;33.80
43561;DHT22;32305;46.410;17.394;2024-02-21T09:35:13;24.50;33.60
43561;DHT22;32305;46.410;17.394;2024-02-21T09:37:40;24.60;33.70
43561;DHT22;32305;46.410;17.394;2024-02-21T09:40:07;24.70;34.10
43561;DHT22;32305;46.410;17.394;2024-02-21T09:42:38;24.70;33.60
43561;DHT22;32305;46.410;17.394;2024-02-21T09:45:14;24.70;33.60
43561;DHT22;32305;46.410;17.394;2024-02-21T09:48:00;24.80;33.40
43561;DHT22;32305;46.410;17.394;2024-02-21T09:50:29;24.90;33.10
43561;DHT22;32305;46.410;17.394;2024-02-21T09:52:58;24.90;33.00
43561;DHT22;32305;46.410;17.394;2024-02-21T09:55:25;25.00;33.00
43561;DHT22;32305;46.410;17.394;2024-02-21T09:57:53;25.00;33.00
43561;DHT22;32305;46.410;17.394;2024-02-21T10:00:21;25.10;33.00
43561;DHT22;32305;46.410;17.394;2024-02-21T10:02:51;25.10;33.00
43561;DHT22;32305;46.410;17.394;2024-02-21T10:05:18;25.10;33.00
43561;DHT22;32305;46.410;17.394;2024-02-21T10:07:45;25.10;33.10
43561;DHT22;32305;46.410;17.394;2024-02-21T10:10:12;25.20;33.10
43561;DHT22;32305;46.410;17.394;2024-02-21T10:12:49;25.20;33.10
43561;DHT22;32305;46.410;17.394;2024-02-21T10:15:20;25.30;33.00
43561;DHT22;32305;46.410;17.394;2024-02-21T10:17:59;25.30;33.00
43561;DHT22;32305;46.410;17.394;2024-02-21T10:20:27;25.30;33.00
43561;DHT22;32305;46.410;17.394;2024-02-21T10:23:01;25.40;33.00
43561;DHT22;32305;46.410;17.394;2024-02-21T10:25:29;25.40;33.00
43561;DHT22;32305;46.410;17.394;2024-02-21T10:27:57;25.40;32.70
43561;DHT22;32305;46.410;17.394;2024-02-21T10:30:24;25.40;32.60
43561;DHT22;32305;46.410;17.394;2024-02-21T10:32:52;25.40;32.50
43561;DHT22;32305;46.410;17.394;2024-02-21T10:35:28;25.50;32.40
43561;DHT22;32305;46.410;17.394;2024-02-21T10:37:56;25.50;32.40
43561;DHT22;32305;46.410;17.394;2024-02-21T10:40:24;25.50;32.50
43561;DHT22;32305;46.410;17.394;2024-02-21T10:42:55;25.60;32.50
43561;DHT22;32305;46.410;17.394;2024-02-21T10:45:23;25.60;32.30
43561;DHT22;32305;46.410;17.394;2024-02-21T10:47:51;25.60;32.20
43561;DHT22;32305;46.410;17.394;2024-02-21T10:50:22;25.60;32.20
43561;DHT22;32305;46.410;17.394;2024-02-21T10:53:08;25.60;32.20
43561;DHT22;32305;46.410;17.394;2024-02-21T10:55:38;25.60;32.20
43561;DHT22;32305;46.410;17.394;2024-02-21T10:58:06;25.60;32.20
43561;DHT22;32305;46.410;17.394;2024-02-21T11:00:33;25.60;32.20
43561;DHT22;32305;46.410;17.394;2024-02-21T11:03:00;25.60;32.30
43561;DHT22;32305;46.410;17.394;2024-02-21T11:05:28;25.60;32.30
43561;DHT22;32305;46.410;17.394;2024-02-21T11:07:57;25.60;32.30
43561;DHT22;32305;46.410;17.394;2024-02-21T11:10:25;25.50;32.80
43561;DHT22;32305;46.410;17.394;2024-02-21T11:13:06;25.60;32.30
43561;DHT22;32305;46.410;17.394;2024-02-21T11:15:36;25.60;32.20
43561;DHT22;32305;46.410;17.394;2024-02-21T11:18:04;25.70;32.00
43561;DHT22;32305;46.410;17.394;2024-02-21T11:20:35;25.70;31.90
43561;DHT22;32305;46.410;17.394;2024-02-21T11:23:03;25.70;31.80
43561;DHT22;32305;46.410;17.394;2024-02-21T11:25:30;25.80;31.90
43561;DHT22;32305;46.410;17.394;2024-02-21T11:28:01;25.80;31.80
43561;DHT22;32305;46.410;17.394;2024-02-21T11:30:32;25.70;31.90
43561;DHT22;32305;46.410;17.394;2024-02-21T11:33:00;25.70;31.70
43561;DHT22;32305;46.410;17.394;2024-02-21T11:35:31;25.70;31.60
43561;DHT22;32305;46.410;17.394;2024-02-21T11:38:10;25.70;31.60
43561;DHT22;32305;46.410;17.394;2024-02-21T11:40:44;25.70;31.70
43561;DHT22;32305;46.410;17.394;2024-02-21T11:43:11;25.70;31.50
43561;DHT22;32305;46.410;17.394;2024-02-21T11:45:38;25.80;31.50
43561;DHT22;32305;46.410;17.394;2024-02-21T11:48:06;25.80;31.60
43561;DHT22;32305;46.410;17.394;2024-02-21T11:50:36;25.70;31.40
43561;DHT22;32305;46.410;17.394;2024-02-21T11:53:03;25.70;31.50
43561;DHT22;32305;46.410;17.394;2024-02-21T11:55:31;25.70;31.50
43561;DHT22;32305;46.410;17.394;2024-02-21T11:57:58;25.70;31.50
43561;DHT22;32305;46.410;17.394;2024-02-21T12:00:25;25.70;31.60
43561;DHT22;32305;46.410;17.394;2024-02-21T12:02:52;25.70;31.50
43561;DHT22;32305;46.410;17.394;2024-02-21T12:05:19;25.70;31.50
43561;DHT22;32305;46.410;17.394;2024-02-21T12:07:47;25.70;31.50
43561;DHT22;32305;46.410;17.394;2024-02-21T12:10:14;25.70;31.70
43561;DHT22;32305;46.410;17.394;2024-02-21T12:12:41;25.70;31.70
43561;DHT22;32305;46.410;17.394;2024-02-21T12:15:08;25.70;31.70
43561;DHT22;32305;46.410;17.394;2024-02-21T12:17:36;25.70;31.70
43561;DHT22;32305;46.410;17.394;2024-02-21T12:20:04;25.70;31.60
43561;DHT22;32305;46.410;17.394;2024-02-21T12:22:37;25.70;31.50
43561;DHT22;32305;46.410;17.394;2024-02-21T12:25:15;25.70;31.60
43561;DHT22;32305;46.410;17.394;2024-02-21T12:27:42;25.70;31.60
43561;DHT22;32305;46.410;17.394;2024-02-21T12:30:09;25.70;31.50
43561;DHT22;32305;46.410;17.394;2024-02-21T12:32:36;25.70;31.40
43561;DHT22;32305;46.410;17.394;2024-02-21T12:35:03;25.70;31.30
43561;DHT22;32305;46.410;17.394;2024-02-21T12:37:31;25.60;31.30
43561;DHT22;32305;46.410;17.394;2024-02-21T12:39:58;25.60;31.30
43561;DHT22;32305;46.410;17.394;2024-02-21T12:42:25;25.60;31.30
43561;DHT22;32305;46.410;17.394;2024-02-21T12:44:52;25.60;31.20
43561;DHT22;32305;46.410;17.394;2024-02-21T12:47:19;25.60;31.40
43561;DHT22;32305;46.410;17.394;2024-02-21T12:49:50;25.60;31.40
43561;DHT22;32305;46.410;17.394;2024-02-21T12:52:17;25.60;31.40
43561;DHT22;32305;46.410;17.394;2024-02-21T12:54:44;25.60;31.50
43561;DHT22;32305;46.410;17.394;2024-02-21T12:57:11;25.60;31.60
43561;DHT22;32305;46.410;17.394;2024-02-21T12:59:38;25.50;31.40
43561;DHT22;32305;46.410;17.394;2024-02-21T13:02:05;25.60;31.40
43561;DHT22;32305;46.410;17.394;2024-02-21T13:04:33;25.60;31.30
43561;DHT22;32305;46.410;17.394;2024-02-21T13:07:00;25.60;31.30
43561;DHT22;32305;46.410;17.394;2024-02-21T13:09:27;25.60;31.20
43561;DHT22;32305;46.410;17.394;2024-02-21T13:11:54;25.60;31.10
43561;DHT22;32305;46.410;17.394;2024-02-21T13:14:21;25.60;31.10
43561;DHT22;32305;46.410;17.394;2024-02-21T13:16:49;25.60;31.00
43561;DHT22;32305;46.410;17.394;2024-02-21T13:19:16;25.60;31.00
43561;DHT22;32305;46.410;17.394;2024-02-21T13:21:45;25.60;31.10
43561;DHT22;32305;46.410;17.394;2024-02-21T13:24:12;25.60;31.10
43561;DHT22;32305;46.410;17.394;2024-02-21T13:26:39;25.60;31.20
43561;DHT22;32305;46.410;17.394;2024-02-21T13:29:06;25.60;31.10
43561;DHT22;32305;46.410;17.394;2024-02-21T13:31:36;25.60;31.10
43561;DHT22;32305;46.410;17.394;2024-02-21T13:34:03;25.60;31.00
43561;DHT22;32305;46.410;17.394;2024-02-21T13:36:30;25.60;30.80
43561;DHT22;32305;46.410;17.394;2024-02-21T13:38:57;25.70;31.00
43561;DHT22;32305;46.410;17.394;2024-02-21T13:41:24;25.70;31.10
43561;DHT22;32305;46.410;17.394;2024-02-21T13:43:51;25.70;31.10
43561;DHT22;32305;46.410;17.394;2024-02-21T13:46:18;25.70;31.10
43561;DHT22;32305;46.410;17.394;2024-02-21T13:48:45;25.80;31.20
43561;DHT22;32305;46.410;17.394;2024-02-21T13:51:11;25.80;31.10
43561;DHT22;32305;46.410;17.394;2024-02-21T13:53:39;25.80;31.00
43561;DHT22;32305;46.410;17.394;2024-02-21T13:56:06;25.80;30.80
43561;DHT22;32305;46.410;17.394;2024-02-21T13:58:33;25.80;30.70
43561;DHT22;32305;46.410;17.394;2024-02-21T14:01:00;25.80;30.70
43561;DHT22;32305;46.410;17.394;2024-02-21T14:03:27;25.80;30.70
43561;DHT22;32305;46.410;17.394;2024-02-21T14:05:54;25.90;30.80
43561;DHT22;32305;46.410;17.394;2024-02-21T14:08:21;25.80;30.80
43561;DHT22;32305;46.410;17.394;2024-02-21T14:10:50;25.90;30.70
43561;DHT22;32305;46.410;17.394;2024-02-21T14:13:17;25.90;30.80
43561;DHT22;32305;46.410;17.394;2024-02-21T14:15:45;25.90;30.90
43561;DHT22;32305;46.410;17.394;2024-02-21T14:18:16;25.80;30.70
43561;DHT22;32305;46.410;17.394;2024-02-21T14:20:43;25.80;30.50
43561;DHT22;32305;46.410;17.394;2024-02-21T14:23:10;25.80;30.30
43561;DHT22;32305;46.410;17.394;2024-02-21T14:25:37;25.80;30.00
43561;DHT22;32305;46.410;17.394;2024-02-21T14:28:07;25.80;30.00
43561;DHT22;32305;46.410;17.394;2024-02-21T14:30:36;25.80;30.00
43561;DHT22;32305;46.410;17.394;2024-02-21T14:33:03;25.80;30.00
43561;DHT22;32305;46.410;17.394;2024-02-21T14:35:30;25.70;29.90
43561;DHT22;32305;46.410;17.394;2024-02-21T14:37:57;25.70;30.00
43561;DHT22;32305;46.410;17.394;2024-02-21T14:40:24;25.70;30.00
43561;DHT22;32305;46.410;17.394;2024-02-21T14:42:51;25.70;30.10
43561;DHT22;32305;46.410;17.394;2024-02-21T14:45:19;25.70;30.20
43561;DHT22;32305;46.410;17.394;2024-02-21T14:47:46;25.70;30.30
43561;DHT22;32305;46.410;17.394;2024-02-21T14:50:13;25.70;30.10
43561;DHT22;32305;46.410;17.394;2024-02-21T14:52:40;25.70;30.20
43561;DHT22;32305;46.410;17.394;2024-02-21T14:55:07;25.70;30.40
43561;DHT22;32305;46.410;17.394;2024-02-21T14:57:35;25.80;30.50
43561;DHT22;32305;46.410;17.394;2024-02-21T15:00:03;25.80;30.70
43561;DHT22;32305;46.410;17.394;2024-02-21T15:02:34;25.70;30.80
43561;DHT22;32305;46.410;17.394;2024-02-21T15:05:01;25.70;30.80
43561;DHT22;32305;46.410;17.394;2024-02-21T15:07:31;25.70;30.80
43561;DHT22;32305;46.410;17.394;2024-02-21T15:09:58;25.80;30.90
43561;DHT22;32305;46.410;17.394;2024-02-21T15:12:26;25.80;30.80
43561;DHT22;32305;46.410;17.394;2024-02-21T15:14:53;25.80;30.70
43561;DHT22;32305;46.410;17.394;2024-02-21T15:17:19;25.80;30.70